Time;durP1;ratioP1;P1;durP2;ratioP2;P2;SDS_P1;SDS_P2;PMS_P1;PMS_P2;Temp;Humidity;BMP_temperature;BMP_pressure;BME280_temperature;BME280_humidity;BME280_pressure;Samples;Min_cycle;Max_cycle;Signal;HPM_P1;HPM_P2
2023/08/30 00:02:02;;;;;;;5.75;2.80;;;;;;;;;;5035859;28;20020;-82
2023/08/30 00:04:28;;;;;;;6.65;2.90;;;;;;;;;;5038011;28;20021;-82
2023/08/30 00:06:54;;;;;;;6.85;3.17;;;;;;;;;;5038644;28;20029;-82
2023/08/30 00:09:19;;;;;;;6.82;2.88;;;;;;;;;;5036000;28;20032;-81
2023/08/30 00:11:44;;;;;;;7.00;3.05;;;;;;;;;;5044587;28;20127;-82
2023/08/30 00:14:10;;;;;;;4.13;2.60;;;;;;;;;;5061204;28;20044;-82
2023/08/30 00:16:38;;;;;;;6.90;3.03;;;;;;;;;;5040052;28;20020;-82
2023/08/30 00:19:03;;;;;;;9.77;2.83;;;;;;;;;;5046039;28;20376;-82
2023/08/30 00:21:29;;;;;;;8.27;2.95;;;;;;;;;;5041495;28;20036;-82
2023/08/30 00:23:54;;;;;;;4.32;2.60;;;;;;;;;;5046946;28;20028;-82
2023/08/30 00:26:19;;;;;;;11.25;3.17;;;;;;;;;;5040525;28;20021;-82
2023/08/30 00:28:45;;;;;;;7.20;2.63;;;;;;;;;;5042466;28;20047;-82
2023/08/30 00:31:10;;;;;;;6.32;3.17;;;;;;;;;;5056495;28;20495;-82
2023/08/30 00:33:35;;;;;;;6.30;3.05;;;;;;;;;;5037094;28;20032;-82
2023/08/30 00:36:01;;;;;;;4.55;2.33;;;;;;;;;;5052776;28;20059;-82
2023/08/30 00:38:27;;;;;;;5.38;2.75;;;;;;;;;;5050689;28;20024;-82
2023/08/30 00:40:55;;;;;;;4.00;2.72;;;;;;;;;;5036314;28;20032;-82
2023/08/30 00:43:21;;;;;;;6.70;2.75;;;;;;;;;;5036868;28;20021;-82
2023/08/30 00:45:47;;;;;;;5.65;3.10;;;;;;;;;;5039327;28;20092;-82
2023/08/30 00:48:12;;;;;;;6.55;3.03;;;;;;;;;;5054134;28;20029;-82
2023/08/30 00:50:38;;;;;;;6.38;3.50;;;;;;;;;;5053534;28;20121;-82
2023/08/30 00:53:05;;;;;;;6.80;3.00;;;;;;;;;;5035888;28;20044;-82
2023/08/30 00:55:37;;;;;;;4.65;3.00;;;;;;;;;;5036574;28;20146;-82
2023/08/30 00:58:02;;;;;;;7.38;3.33;;;;;;;;;;5055077;28;20430;-82
2023/08/30 01:00:29;;;;;;;8.27;3.10;;;;;;;;;;5055300;28;20468;-82
2023/08/30 01:02:55;;;;;;;6.10;3.00;;;;;;;;;;5037255;28;20345;-82
2023/08/30 01:05:20;;;;;;;5.03;3.05;;;;;;;;;;5034397;28;20059;-82
2023/08/30 01:07:46;;;;;;;5.03;3.03;;;;;;;;;;5034945;28;20044;-82
2023/08/30 01:10:11;;;;;;;10.45;3.40;;;;;;;;;;5031747;28;20025;-83
2023/08/30 01:12:39;;;;;;;7.07;3.47;;;;;;;;;;5045478;28;20017;-82
2023/08/30 01:15:21;;;;;;;6.45;3.50;;;;;;;;;;5034750;28;20029;-82
2023/08/30 01:17:51;;;;;;;8.35;3.80;;;;;;;;;;5040448;28;20456;-82
2023/08/30 01:20:20;;;;;;;6.18;3.53;;;;;;;;;;5053330;28;20023;-82
2023/08/30 01:22:45;;;;;;;8.73;3.75;;;;;;;;;;5033393;28;20028;-82
2023/08/30 01:25:27;;;;;;;8.27;4.13;;;;;;;;;;5065623;28;20073;-82
2023/08/30 01:27:53;;;;;;;14.27;4.10;;;;;;;;;;5024847;28;20384;-82
2023/08/30 01:30:19;;;;;;;7.32;4.00;;;;;;;;;;5034584;28;20028;-82
2023/08/30 01:32:46;;;;;;;10.20;3.83;;;;;;;;;;5057582;28;20058;-82
2023/08/30 01:35:16;;;;;;;7.90;4.35;;;;;;;;;;5042155;28;20357;-81
2023/08/30 01:37:42;;;;;;;8.60;4.38;;;;;;;;;;5026841;28;20016;-82
2023/08/30 01:40:09;;;;;;;10.10;4.03;;;;;;;;;;5044182;28;20024;-83
2023/08/30 01:42:38;;;;;;;11.05;4.55;;;;;;;;;;5033564;28;20116;-82
2023/08/30 01:45:08;;;;;;;7.63;4.13;;;;;;;;;;5043994;28;20025;-82
2023/08/30 01:47:35;;;;;;;9.77;4.53;;;;;;;;;;5039858;28;20029;-82
2023/08/30 01:50:01;;;;;;;10.68;4.55;;;;;;;;;;5065302;28;20341;-82
2023/08/30 01:52:27;;;;;;;7.45;4.13;;;;;;;;;;5034790;28;20017;-81
2023/08/30 01:54:55;;;;;;;8.65;4.68;;;;;;;;;;5068144;28;20358;-82
2023/08/30 01:57:20;;;;;;;11.85;4.97;;;;;;;;;;5057718;28;20075;-82
2023/08/30 01:59:46;;;;;;;8.88;4.30;;;;;;;;;;5039126;28;20051;-82
2023/08/30 02:02:11;;;;;;;8.25;5.10;;;;;;;;;;5039743;28;20525;-82
2023/08/30 02:04:36;;;;;;;9.40;4.85;;;;;;;;;;5039113;28;20021;-82
2023/08/30 02:07:08;;;;;;;12.73;4.75;;;;;;;;;;5040128;28;20025;-82
2023/08/30 02:09:40;;;;;;;8.23;4.60;;;;;;;;;;5038931;28;20029;-82
2023/08/30 02:12:09;;;;;;;9.35;4.55;;;;;;;;;;5018679;28;20030;-82
2023/08/30 02:14:35;;;;;;;8.95;4.50;;;;;;;;;;5045100;28;20029;-82
2023/08/30 02:17:01;;;;;;;11.70;4.50;;;;;;;;;;5038172;28;20040;-82
2023/08/30 02:19:26;;;;;;;10.88;5.15;;;;;;;;;;5049794;28;20016;-82
2023/08/30 02:21:52;;;;;;;8.13;5.03;;;;;;;;;;5041262;28;20472;-82
2023/08/30 02:24:17;;;;;;;9.68;4.93;;;;;;;;;;5037861;28;20036;-82
2023/08/30 02:26:43;;;;;;;6.43;4.30;;;;;;;;;;5037082;28;20032;-82
2023/08/30 02:29:09;;;;;;;7.38;4.80;;;;;;;;;;5037961;28;20032;-82
2023/08/30 02:31:35;;;;;;;7.82;4.32;;;;;;;;;;5067963;28;20017;-82
2023/08/30 02:34:01;;;;;;;8.60;4.72;;;;;;;;;;5043619;28;20017;-82
2023/08/30 02:36:27;;;;;;;11.65;5.55;;;;;;;;;;5057448;28;20352;-81
2023/08/30 02:38:52;;;;;;;10.15;4.97;;;;;;;;;;5035154;28;20532;-83
2023/08/30 02:41:17;;;;;;;9.88;5.63;;;;;;;;;;5045951;28;20051;-82
2023/08/30 02:43:46;;;;;;;9.93;5.55;;;;;;;;;;5042454;28;20021;-82
2023/08/30 02:46:11;;;;;;;9.25;5.25;;;;;;;;;;5054910;28;20082;-82
2023/08/30 02:48:36;;;;;;;9.00;5.00;;;;;;;;;;5067216;28;20021;-82
2023/08/30 02:51:02;;;;;;;11.32;5.82;;;;;;;;;;5056837;28;20077;-82
2023/08/30 02:53:27;;;;;;;10.30;5.35;;;;;;;;;;5046047;28;20093;-82
2023/08/30 02:55:55;;;;;;;8.38;5.10;;;;;;;;;;5039561;28;20045;-82
2023/08/30 02:58:21;;;;;;;9.77;5.15;;;;;;;;;;5047972;28;20021;-83
2023/08/30 03:00:46;;;;;;;12.23;5.25;;;;;;;;;;5051585;28;20028;-82
2023/08/30 03:03:12;;;;;;;10.00;5.63;;;;;;;;;;5052988;28;20032;-82
2023/08/30 03:05:38;;;;;;;8.43;4.72;;;;;;;;;;5037307;28;20025;-83
2023/08/30 03:08:03;;;;;;;11.52;5.78;;;;;;;;;;5036855;28;20013;-82
2023/08/30 03:10:28;;;;;;;9.50;4.93;;;;;;;;;;5032843;28;20043;-83
2023/08/30 03:12:54;;;;;;;9.40;5.75;;;;;;;;;;5034594;28;20040;-82
2023/08/30 03:15:19;;;;;;;12.25;5.75;;;;;;;;;;5038485;28;20457;-82
2023/08/30 03:17:45;;;;;;;10.13;5.43;;;;;;;;;;5038163;28;20495;-83
2023/08/30 03:20:10;;;;;;;12.68;5.55;;;;;;;;;;5039998;28;20035;-83
2023/08/30 03:22:36;;;;;;;12.15;5.53;;;;;;;;;;5057079;28;20054;-82
2023/08/30 03:25:03;;;;;;;9.43;5.40;;;;;;;;;;5037083;28;20028;-82
2023/08/30 03:27:29;;;;;;;9.68;5.50;;;;;;;;;;5061186;28;20091;-82
2023/08/30 03:29:57;;;;;;;7.70;5.22;;;;;;;;;;5040927;28;20086;-83
2023/08/30 03:32:22;;;;;;;14.32;5.65;;;;;;;;;;5053422;28;20024;-82
2023/08/30 03:34:48;;;;;;;15.85;5.63;;;;;;;;;;5047800;28;20472;-82
2023/08/30 03:37:14;;;;;;;7.63;5.18;;;;;;;;;;5036714;28;20510;-82
2023/08/30 03:39:39;;;;;;;14.05;5.32;;;;;;;;;;5045345;28;20451;-83
2023/08/30 03:42:05;;;;;;;11.30;5.78;;;;;;;;;;5042157;28;20691;-82
2023/08/30 03:44:30;;;;;;;8.85;5.53;;;;;;;;;;5049189;28;20048;-82
2023/08/30 03:46:56;;;;;;;10.30;5.45;;;;;;;;;;5048845;28;20020;-83
2023/08/30 03:49:22;;;;;;;13.00;5.20;;;;;;;;;;5053320;28;20047;-85
2023/08/30 03:51:47;;;;;;;9.00;4.97;;;;;;;;;;5035624;28;20056;-82
2023/08/30 03:54:16;;;;;;;10.13;5.60;;;;;;;;;;5038346;28;20114;-83
2023/08/30 03:56:41;;;;;;;10.25;4.95;;;;;;;;;;5046751;28;20082;-83
2023/08/30 03:59:07;;;;;;;11.93;5.88;;;;;;;;;;5035533;28;20021;-83
2023/08/30 04:01:33;;;;;;;9.95;5.22;;;;;;;;;;5035652;28;20017;-82
2023/08/30 04:03:58;;;;;;;9.50;5.28;;;;;;;;;;5048815;28;20021;-83
2023/08/30 04:06:23;;;;;;;11.57;5.13;;;;;;;;;;5035761;28;20029;-82
2023/08/30 04:08:48;;;;;;;12.20;5.20;;;;;;;;;;5035823;28;20028;-82
2023/08/30 04:11:14;;;;;;;9.80;5.10;;;;;;;;;;5035565;28;20486;-82
2023/08/30 04:13:42;;;;;;;12.23;6.05;;;;;;;;;;5044489;28;20025;-83
2023/08/30 04:16:07;;;;;;;9.63;5.40;;;;;;;;;;5039917;28;20020;-83
2023/08/30 04:18:33;;;;;;;11.18;6.03;;;;;;;;;;5042517;28;20103;-83
2023/08/30 04:20:58;;;;;;;10.88;5.68;;;;;;;;;;5057092;28;20021;-83
2023/08/30 04:23:24;;;;;;;7.57;4.93;;;;;;;;;;5036058;28;20024;-85
2023/08/30 04:25:49;;;;;;;8.90;5.40;;;;;;;;;;5048433;28;20508;-86
2023/08/30 04:28:14;;;;;;;11.02;5.40;;;;;;;;;;5050069;28;20021;-86
2023/08/30 04:30:49;;;;;;;10.07;5.40;;;;;;;;;;5074945;28;20021;-85
2023/08/30 04:33:14;;;;;;;10.10;5.18;;;;;;;;;;5057346;28;20341;-86
2023/08/30 04:35:39;;;;;;;10.55;5.13;;;;;;;;;;5047132;28;20441;-85
2023/08/30 04:38:05;;;;;;;13.75;5.85;;;;;;;;;;5036636;28;20024;-86
2023/08/30 04:40:30;;;;;;;12.38;6.07;;;;;;;;;;5049942;28;20021;-86
2023/08/30 04:42:58;;;;;;;8.85;5.38;;;;;;;;;;5035785;28;20056;-86
2023/08/30 04:45:23;;;;;;;10.32;5.43;;;;;;;;;;5035119;28;20021;-85
2023/08/30 04:47:49;;;;;;;10.77;5.43;;;;;;;;;;5034070;28;20025;-86
2023/08/30 04:50:20;;;;;;;10.50;5.07;;;;;;;;;;5036670;28;20079;-86
2023/08/30 04:52:45;;;;;;;18.75;5.85;;;;;;;;;;5039072;28;20108;-86
2023/08/30 04:55:10;;;;;;;13.57;5.65;;;;;;;;;;5054345;28;20044;-88
2023/08/30 04:57:36;;;;;;;16.13;6.28;;;;;;;;;;5040620;28;20021;-87
2023/08/30 05:00:04;;;;;;;11.52;5.75;;;;;;;;;;5046712;28;20092;-86
2023/08/30 05:02:30;;;;;;;13.73;6.32;;;;;;;;;;5034920;28;20029;-86
2023/08/30 05:04:55;;;;;;;15.93;5.75;;;;;;;;;;5034306;28;20037;-86
2023/08/30 05:07:20;;;;;;;13.00;5.78;;;;;;;;;;5047402;28;20040;-86
2023/08/30 05:09:48;;;;;;;15.25;6.10;;;;;;;;;;5049870;28;20071;-85
2023/08/30 05:12:17;;;;;;;11.43;5.78;;;;;;;;;;5034969;28;20384;-86
2023/08/30 05:14:42;;;;;;;13.07;6.00;;;;;;;;;;5049059;28;20381;-86
2023/08/30 05:17:07;;;;;;;13.25;6.72;;;;;;;;;;5022786;28;20017;-86
2023/08/30 05:19:33;;;;;;;13.27;6.53;;;;;;;;;;5024068;28;20112;-86
2023/08/30 05:21:58;;;;;;;18.45;7.10;;;;;;;;;;5022759;28;20056;-86
2023/08/30 05:24:23;;;;;;;14.73;6.40;;;;;;;;;;5022575;28;20021;-89
2023/08/30 05:26:49;;;;;;;15.38;6.95;;;;;;;;;;5047402;28;20067;-86
2023/08/30 05:29:15;;;;;;;14.77;7.00;;;;;;;;;;5034885;28;20056;-86
2023/08/30 05:31:40;;;;;;;10.70;5.68;;;;;;;;;;5032518;28;20060;-86
2023/08/30 05:34:08;;;;;;;13.90;6.60;;;;;;;;;;5041933;28;20025;-86
2023/08/30 05:36:34;;;;;;;11.02;6.03;;;;;;;;;;5048367;28;20017;-86
2023/08/30 05:38:59;;;;;;;14.05;6.68;;;;;;;;;;5052813;28;20088;-85
2023/08/30 05:41:24;;;;;;;11.65;6.18;;;;;;;;;;5038190;28;20246;-87
2023/08/30 05:43:50;;;;;;;10.93;5.47;;;;;;;;;;5038754;28;20032;-86
2023/08/30 05:46:15;;;;;;;15.05;6.05;;;;;;;;;;5035392;28;20028;-86
2023/08/30 05:48:41;;;;;;;10.20;5.47;;;;;;;;;;5025759;28;20481;-86
2023/08/30 05:51:06;;;;;;;12.75;5.93;;;;;;;;;;5040402;28;20025;-86
2023/08/30 05:53:31;;;;;;;11.13;5.60;;;;;;;;;;5045485;28;20151;-86
2023/08/30 05:55:56;;;;;;;10.18;5.80;;;;;;;;;;5038448;28;20017;-85
2023/08/30 05:58:22;;;;;;;13.48;5.65;;;;;;;;;;5039169;28;20028;-86
2023/08/30 06:00:47;;;;;;;11.10;5.30;;;;;;;;;;5038643;28;20600;-86
2023/08/30 06:03:15;;;;;;;13.90;5.32;;;;;;;;;;5035049;28;20450;-86
2023/08/30 06:05:40;;;;;;;9.48;5.18;;;;;;;;;;5038404;28;20037;-86
2023/08/30 06:08:05;;;;;;;11.00;4.95;;;;;;;;;;5061216;28;20027;-84
2023/08/30 06:10:31;;;;;;;11.95;5.93;;;;;;;;;;5047248;28;20096;-86
2023/08/30 06:12:56;;;;;;;11.07;4.95;;;;;;;;;;5037204;28;20048;-85
2023/08/30 06:15:32;;;;;;;9.98;5.03;;;;;;;;;;5065735;28;20048;-85
2023/08/30 06:17:58;;;;;;;11.27;4.53;;;;;;;;;;5040859;28;20021;-85
2023/08/30 06:20:24;;;;;;;10.75;4.28;;;;;;;;;;5049534;28;20028;-85
2023/08/30 06:22:49;;;;;;;10.48;4.53;;;;;;;;;;5043959;28;20132;-85
2023/08/30 06:25:23;;;;;;;8.20;3.75;;;;;;;;;;5045613;28;20039;-85
2023/08/30 06:27:57;;;;;;;9.63;4.70;;;;;;;;;;5037633;28;20124;-84
2023/08/30 06:30:22;;;;;;;8.60;4.35;;;;;;;;;;5035947;28;20028;-85
2023/08/30 06:32:48;;;;;;;8.90;4.30;;;;;;;;;;5036025;28;20029;-84
2023/08/30 06:35:13;;;;;;;8.10;3.80;;;;;;;;;;5041360;28;20060;-85
2023/08/30 06:37:38;;;;;;;8.48;3.38;;;;;;;;;;5036419;28;20111;-85
2023/08/30 06:40:04;;;;;;;8.25;3.63;;;;;;;;;;5033942;28;20144;-84
2023/08/30 06:42:30;;;;;;;6.22;3.80;;;;;;;;;;5042094;28;20028;-85
2023/08/30 06:44:55;;;;;;;5.85;2.60;;;;;;;;;;5042452;28;20079;-87
2023/08/30 06:47:23;;;;;;;7.50;3.03;;;;;;;;;;5036145;28;20080;-85
2023/08/30 06:49:48;;;;;;;5.40;2.80;;;;;;;;;;5034145;28;20034;-85
2023/08/30 06:52:14;;;;;;;7.13;3.10;;;;;;;;;;5050047;28;20116;-85
2023/08/30 06:54:39;;;;;;;5.68;2.53;;;;;;;;;;5044047;28;20024;-84
2023/08/30 06:57:06;;;;;;;4.35;2.63;;;;;;;;;;5049894;28;20021;-85
2023/08/30 06:59:32;;;;;;;4.20;2.15;;;;;;;;;;5037799;28;20106;-85
2023/08/30 07:01:57;;;;;;;4.88;2.85;;;;;;;;;;5039326;28;20037;-85
2023/08/30 07:04:22;;;;;;;9.32;3.13;;;;;;;;;;5055247;28;20021;-85
2023/08/30 07:06:48;;;;;;;7.43;2.40;;;;;;;;;;5041042;28;20059;-85
2023/08/30 07:09:14;;;;;;;6.22;2.95;;;;;;;;;;5052314;28;20024;-86
2023/08/30 07:11:39;;;;;;;6.45;2.90;;;;;;;;;;5039276;28;20046;-86
2023/08/30 07:14:04;;;;;;;5.15;2.67;;;;;;;;;;5038135;28;20024;-86
2023/08/30 07:16:31;;;;;;;7.63;2.78;;;;;;;;;;5038563;28;20017;-85
2023/08/30 07:18:57;;;;;;;6.20;2.88;;;;;;;;;;5047202;28;20124;-86
2023/08/30 07:21:22;;;;;;;6.40;2.78;;;;;;;;;;5036571;28;20029;-86
2023/08/30 07:23:48;;;;;;;6.55;3.13;;;;;;;;;;5043481;28;20044;-86
2023/08/30 07:26:13;;;;;;;8.95;3.03;;;;;;;;;;5046250;28;20075;-85
2023/08/30 07:28:39;;;;;;;7.30;2.58;;;;;;;;;;5037248;28;20112;-85
2023/08/30 07:31:05;;;;;;;4.75;2.78;;;;;;;;;;5036356;28;20032;-85
2023/08/30 07:33:31;;;;;;;6.80;2.90;;;;;;;;;;5049013;28;20410;-85
2023/08/30 07:35:56;;;;;;;6.88;2.80;;;;;;;;;;5048250;28;20041;-85
2023/08/30 07:38:22;;;;;;;5.20;2.65;;;;;;;;;;5033289;28;20017;-89
2023/08/30 07:40:47;;;;;;;6.88;2.90;;;;;;;;;;5037616;28;20048;-84
2023/08/30 07:43:12;;;;;;;5.07;2.65;;;;;;;;;;5037187;28;20017;-83
2023/08/30 07:45:38;;;;;;;5.07;3.40;;;;;;;;;;5038407;28;20036;-85
2023/08/30 07:48:03;;;;;;;7.72;2.85;;;;;;;;;;5045816;28;20480;-85
2023/08/30 07:50:28;;;;;;;5.35;2.72;;;;;;;;;;5034964;28;20077;-86
2023/08/30 07:52:56;;;;;;;8.40;3.03;;;;;;;;;;5036283;28;20028;-87
2023/08/30 07:55:22;;;;;;;8.43;3.60;;;;;;;;;;5035205;28;20021;-85
2023/08/30 07:57:47;;;;;;;5.45;3.15;;;;;;;;;;5036211;28;20098;-86
2023/08/30 08:00:13;;;;;;;5.82;3.17;;;;;;;;;;5027688;28;20048;-85
2023/08/30 08:02:41;;;;;;;6.45;3.50;;;;;;;;;;5031915;28;20032;-85
2023/08/30 08:05:09;;;;;;;9.35;3.15;;;;;;;;;;5051947;28;20498;-85
2023/08/30 08:07:39;;;;;;;4.88;2.95;;;;;;;;;;5056082;28;20498;-88
2023/08/30 08:10:05;;;;;;;7.57;3.28;;;;;;;;;;5054391;28;20078;-85
2023/08/30 08:12:31;;;;;;;5.18;3.45;;;;;;;;;;5037884;28;20017;-85
2023/08/30 08:14:56;;;;;;;6.20;3.22;;;;;;;;;;5035839;28;20032;-85
2023/08/30 08:17:21;;;;;;;6.45;3.40;;;;;;;;;;5045178;28;20047;-86
2023/08/30 08:19:47;;;;;;;4.95;2.90;;;;;;;;;;5039322;28;20017;-85
2023/08/30 08:22:13;;;;;;;8.25;3.33;;;;;;;;;;5046906;28;20107;-85
2023/08/30 08:24:43;;;;;;;5.05;3.05;;;;;;;;;;5044580;28;20017;-85
2023/08/30 08:27:09;;;;;;;7.63;3.63;;;;;;;;;;5042804;28;20498;-85
2023/08/30 08:29:40;;;;;;;4.55;2.75;;;;;;;;;;5046993;28;20020;-85
2023/08/30 08:32:06;;;;;;;6.32;2.95;;;;;;;;;;5051240;28;20052;-85
2023/08/30 08:34:31;;;;;;;6.50;3.25;;;;;;;;;;5037946;28;20040;-85
2023/08/30 08:36:59;;;;;;;4.88;3.00;;;;;;;;;;5036762;28;20013;-85
2023/08/30 08:39:25;;;;;;;5.78;3.53;;;;;;;;;;5035105;28;20044;-84
2023/08/30 08:41:52;;;;;;;8.02;3.08;;;;;;;;;;5054744;28;20025;-85
2023/08/30 08:44:18;;;;;;;3.97;2.63;;;;;;;;;;5035371;28;20023;-85
2023/08/30 08:46:45;;;;;;;4.30;2.70;;;;;;;;;;5047302;28;20467;-85
2023/08/30 08:49:13;;;;;;;4.60;3.00;;;;;;;;;;5055368;28;20017;-85
2023/08/30 08:51:38;;;;;;;5.90;3.05;;;;;;;;;;5035281;28;20036;-84
2023/08/30 08:54:04;;;;;;;3.45;2.53;;;;;;;;;;5037207;28;20017;-85
2023/08/30 08:56:33;;;;;;;5.05;2.80;;;;;;;;;;5047986;28;20017;-85
2023/08/30 08:59:01;;;;;;;3.85;2.50;;;;;;;;;;5029398;28;20040;-85
2023/08/30 09:01:31;;;;;;;5.03;3.00;;;;;;;;;;5039026;28;20380;-87
2023/08/30 09:03:56;;;;;;;5.68;2.40;;;;;;;;;;5053000;28;20021;-85
2023/08/30 09:06:25;;;;;;;6.32;3.10;;;;;;;;;;5043774;28;20024;-85
2023/08/30 09:08:50;;;;;;;4.78;2.40;;;;;;;;;;5041472;28;20020;-85
2023/08/30 09:11:15;;;;;;;5.50;2.45;;;;;;;;;;5040436;28;20036;-85
2023/08/30 09:13:42;;;;;;;3.70;2.17;;;;;;;;;;5036409;28;20021;-86
2023/08/30 09:16:14;;;;;;;3.65;2.30;;;;;;;;;;5038272;28;20376;-87
2023/08/30 09:18:42;;;;;;;3.47;2.42;;;;;;;;;;5024736;28;20380;-87
2023/08/30 09:21:10;;;;;;;3.83;2.35;;;;;;;;;;5036676;28;20017;-85
2023/08/30 09:23:39;;;;;;;5.10;2.10;;;;;;;;;;5039068;28;20041;-85
2023/08/30 09:26:04;;;;;;;3.33;2.00;;;;;;;;;;5046226;28;20032;-88
2023/08/30 09:28:31;;;;;;;3.75;2.00;;;;;;;;;;5049105;28;20018;-85
2023/08/30 09:31:00;;;;;;;3.75;2.45;;;;;;;;;;5040913;28;20021;-86
2023/08/30 09:33:34;;;;;;;5.97;2.72;;;;;;;;;;5062107;28;20341;-86
2023/08/30 09:36:00;;;;;;;5.45;3.08;;;;;;;;;;5034272;28;20052;-84
2023/08/30 09:38:26;;;;;;;3.80;2.47;;;;;;;;;;5043888;28;20052;-87
2023/08/30 09:40:52;;;;;;;5.53;2.95;;;;;;;;;;5046530;28;20124;-84
2023/08/30 09:43:24;;;;;;;3.25;2.30;;;;;;;;;;5043045;28;20044;-81
2023/08/30 09:45:52;;;;;;;4.75;2.65;;;;;;;;;;5038927;28;20083;-82
2023/08/30 09:48:24;;;;;;;7.90;2.80;;;;;;;;;;5036175;28;20036;-83
2023/08/30 09:50:54;;;;;;;5.05;2.88;;;;;;;;;;5041812;28;20161;-81
2023/08/30 09:53:21;;;;;;;4.68;2.85;;;;;;;;;;5041732;28;20104;-81
2023/08/30 09:55:47;;;;;;;4.82;3.15;;;;;;;;;;5039061;28;20025;-83
2023/08/30 09:58:14;;;;;;;7.00;3.78;;;;;;;;;;5025783;28;20017;-83
2023/08/30 10:00:39;;;;;;;5.40;3.15;;;;;;;;;;5038032;28;20036;-80
2023/08/30 10:03:07;;;;;;;8.18;3.80;;;;;;;;;;5037524;28;20052;-82
2023/08/30 10:05:33;;;;;;;7.07;4.28;;;;;;;;;;5037939;28;20021;-81
2023/08/30 10:07:59;;;;;;;6.25;4.07;;;;;;;;;;5036885;28;20032;-80
2023/08/30 10:10:25;;;;;;;4.68;3.20;;;;;;;;;;5037371;28;20490;-81
2023/08/30 10:12:51;;;;;;;5.13;3.88;;;;;;;;;;5037163;28;20473;-80
2023/08/30 10:15:16;;;;;;;5.75;3.28;;;;;;;;;;5029481;28;20036;-81
2023/08/30 10:17:44;;;;;;;5.40;3.58;;;;;;;;;;5037526;28;20032;-81
2023/08/30 10:20:11;;;;;;;7.88;4.13;;;;;;;;;;5035544;28;20385;-81
2023/08/30 10:22:37;;;;;;;6.25;3.92;;;;;;;;;;5032698;28;20029;-81
2023/08/30 10:25:05;;;;;;;7.30;4.22;;;;;;;;;;5037595;28;20307;-81
2023/08/30 10:27:31;;;;;;;6.43;4.18;;;;;;;;;;5032858;28;20018;-81
2023/08/30 10:29:58;;;;;;;10.35;4.35;;;;;;;;;;5036648;28;20302;-81
2023/08/30 10:32:23;;;;;;;10.10;4.60;;;;;;;;;;5051563;28;20021;-81
2023/08/30 10:34:49;;;;;;;7.45;4.13;;;;;;;;;;5037231;28;20021;-80
2023/08/30 10:37:15;;;;;;;7.78;4.10;;;;;;;;;;5044037;28;20452;-81
2023/08/30 10:39:41;;;;;;;8.60;4.70;;;;;;;;;;5037840;28;20112;-81
2023/08/30 10:42:10;;;;;;;8.02;4.40;;;;;;;;;;5054955;28;20464;-81
2023/08/30 10:44:51;;;;;;;10.40;4.35;;;;;;;;;;5038060;28;20023;-81
2023/08/30 10:47:43;;;;;;;7.35;4.40;;;;;;;;;;5036914;28;20057;-83
2023/08/30 10:50:10;;;;;;;7.50;4.50;;;;;;;;;;5035977;28;20429;-81
2023/08/30 10:52:35;;;;;;;8.65;4.85;;;;;;;;;;5036756;28;20274;-81
2023/08/30 10:55:07;;;;;;;8.40;4.97;;;;;;;;;;5038626;28;20025;-81
2023/08/30 10:57:33;;;;;;;8.80;4.75;;;;;;;;;;5038722;28;20053;-83
2023/08/30 11:00:13;;;;;;;8.90;4.43;;;;;;;;;;5057349;28;20029;-83
2023/08/30 11:02:43;;;;;;;8.50;4.72;;;;;;;;;;5039361;28;20033;-81
2023/08/30 11:05:08;;;;;;;9.25;4.78;;;;;;;;;;5042782;28;20032;-83
2023/08/30 11:07:34;;;;;;;8.80;4.68;;;;;;;;;;5050602;28;20017;-82
2023/08/30 11:09:59;;;;;;;6.53;4.20;;;;;;;;;;5033644;28;20057;-83
2023/08/30 11:12:29;;;;;;;7.95;4.53;;;;;;;;;;5030978;28;20025;-80
2023/08/30 11:14:55;;;;;;;9.65;4.80;;;;;;;;;;5036237;28;20472;-80
2023/08/30 11:17:20;;;;;;;6.85;3.85;;;;;;;;;;5030054;28;20059;-81
2023/08/30 11:19:46;;;;;;;8.27;4.35;;;;;;;;;;5053898;28;20024;-80
2023/08/30 11:22:15;;;;;;;7.18;4.40;;;;;;;;;;5054755;28;20049;-82
2023/08/30 11:24:40;;;;;;;8.18;4.45;;;;;;;;;;5032785;28;20033;-82
2023/08/30 11:27:06;;;;;;;8.70;4.35;;;;;;;;;;5034979;28;20559;-80
2023/08/30 11:29:31;;;;;;;9.02;5.20;;;;;;;;;;5036005;28;20021;-80
2023/08/30 11:31:57;;;;;;;9.20;5.10;;;;;;;;;;5033972;28;20052;-83
2023/08/30 11:34:22;;;;;;;6.88;4.45;;;;;;;;;;5033681;28;20021;-82
2023/08/30 11:36:53;;;;;;;9.00;5.30;;;;;;;;;;5053145;28;20044;-81
2023/08/30 11:39:19;;;;;;;9.20;4.95;;;;;;;;;;5024483;28;20017;-83
2023/08/30 11:41:44;;;;;;;11.57;5.63;;;;;;;;;;5035115;28;20511;-82
2023/08/30 11:44:10;;;;;;;8.25;5.03;;;;;;;;;;5049397;28;20047;-83
2023/08/30 11:46:35;;;;;;;10.80;5.57;;;;;;;;;;5035539;28;20029;-82
2023/08/30 11:49:02;;;;;;;8.40;5.82;;;;;;;;;;5034991;28;20488;-83
2023/08/30 11:51:27;;;;;;;13.95;6.30;;;;;;;;;;5035222;28;20452;-83
2023/08/30 11:53:54;;;;;;;11.63;5.80;;;;;;;;;;5050969;28;20083;-83
2023/08/30 11:56:22;;;;;;;12.10;5.88;;;;;;;;;;5047629;28;20070;-80
2023/08/30 11:58:51;;;;;;;11.20;5.85;;;;;;;;;;5035537;28;20025;-82
2023/08/30 12:01:18;;;;;;;8.57;5.20;;;;;;;;;;5029003;28;20021;-82
2023/08/30 12:03:49;;;;;;;8.18;5.50;;;;;;;;;;5035147;28;20444;-82
2023/08/30 12:06:14;;;;;;;8.23;5.10;;;;;;;;;;5035886;28;20017;-81
2023/08/30 12:08:40;;;;;;;12.02;5.90;;;;;;;;;;5035538;28;20028;-82
2023/08/30 12:11:06;;;;;;;8.90;5.40;;;;;;;;;;5035497;28;20128;-81
2023/08/30 12:13:34;;;;;;;9.65;4.68;;;;;;;;;;5034789;28;20025;-80
2023/08/30 12:16:01;;;;;;;6.82;4.00;;;;;;;;;;5063993;28;20032;-81
2023/08/30 12:18:32;;;;;;;7.38;4.22;;;;;;;;;;5044548;28;20035;-81
2023/08/30 12:20:59;;;;;;;10.57;3.87;;;;;;;;;;5044200;28;20020;-80
2023/08/30 12:23:25;;;;;;;8.45;3.60;;;;;;;;;;5037502;28;20353;-80
2023/08/30 12:26:00;;;;;;;8.55;3.45;;;;;;;;;;5044416;28;20028;-81
2023/08/30 12:28:26;;;;;;;7.57;4.15;;;;;;;;;;5042136;28;20507;-81
2023/08/30 12:30:52;;;;;;;8.55;2.80;;;;;;;;;;5043413;28;20024;-80
2023/08/30 12:33:18;;;;;;;7.20;2.20;;;;;;;;;;5042607;28;20056;-80
2023/08/30 12:35:43;;;;;;;6.88;1.98;;;;;;;;;;5049207;28;20025;-80
2023/08/30 12:38:09;;;;;;;9.55;2.15;;;;;;;;;;5030428;28;20032;-81
2023/08/30 12:40:35;;;;;;;4.70;1.65;;;;;;;;;;5031900;28;20028;-79
2023/08/30 12:43:00;;;;;;;4.60;1.80;;;;;;;;;;5034973;28;20483;-80
2023/08/30 12:45:25;;;;;;;10.20;2.33;;;;;;;;;;5034992;28;20039;-80
2023/08/30 12:47:51;;;;;;;9.20;1.48;;;;;;;;;;5035019;28;20029;-80
2023/08/30 12:50:16;;;;;;;10.88;1.92;;;;;;;;;;5034658;28;20040;-80
2023/08/30 12:52:41;;;;;;;7.35;1.63;;;;;;;;;;5034517;28;20033;-81
2023/08/30 12:55:07;;;;;;;9.00;2.05;;;;;;;;;;5035245;28;20456;-80
2023/08/30 12:57:32;;;;;;;7.07;1.80;;;;;;;;;;5033658;28;20024;-80
2023/08/30 12:59:57;;;;;;;6.05;1.63;;;;;;;;;;5034838;28;20473;-80
2023/08/30 13:02:23;;;;;;;5.40;1.70;;;;;;;;;;5034131;28;20116;-80
2023/08/30 13:04:48;;;;;;;4.10;1.20;;;;;;;;;;5034435;28;20067;-81
2023/08/30 13:07:13;;;;;;;4.95;1.30;;;;;;;;;;5034589;28;20025;-80
2023/08/30 13:09:39;;;;;;;8.40;1.10;;;;;;;;;;5034608;28;20139;-81
2023/08/30 13:12:06;;;;;;;9.13;1.38;;;;;;;;;;5044369;28;20511;-81
2023/08/30 13:14:31;;;;;;;8.82;1.77;;;;;;;;;;5051045;28;20487;-81
2023/08/30 13:16:57;;;;;;;5.38;1.13;;;;;;;;;;5034851;28;20506;-81
2023/08/30 13:19:22;;;;;;;9.85;1.45;;;;;;;;;;5034766;28;20032;-81
2023/08/30 13:21:47;;;;;;;5.57;1.20;;;;;;;;;;5016881;28;20021;-80
2023/08/30 13:24:13;;;;;;;6.13;1.35;;;;;;;;;;5036279;28;20099;-81
2023/08/30 13:26:38;;;;;;;6.15;1.33;;;;;;;;;;5034962;28;20091;-80
2023/08/30 13:29:04;;;;;;;10.82;2.30;;;;;;;;;;5066689;28;20325;-80
2023/08/30 13:31:29;;;;;;;6.90;1.40;;;;;;;;;;5035632;28;20481;-81
2023/08/30 13:33:54;;;;;;;4.05;1.23;;;;;;;;;;5038701;28;20028;-80
2023/08/30 13:36:20;;;;;;;3.80;1.20;;;;;;;;;;5038359;28;20057;-81
2023/08/30 13:38:45;;;;;;;3.08;1.15;;;;;;;;;;5038478;28;20024;-80
2023/08/30 13:41:11;;;;;;;4.45;1.23;;;;;;;;;;5037022;28;20045;-81
2023/08/30 13:43:36;;;;;;;3.35;1.20;;;;;;;;;;5034783;28;20087;-80
2023/08/30 13:46:01;;;;;;;8.77;1.63;;;;;;;;;;5034949;28;20025;-81
2023/08/30 13:48:27;;;;;;;5.45;1.38;;;;;;;;;;5034407;28;20146;-81
2023/08/30 13:50:55;;;;;;;3.47;1.20;;;;;;;;;;5056838;28;20027;-81
2023/08/30 13:53:20;;;;;;;9.30;1.00;;;;;;;;;;5054138;28;20108;-81
2023/08/30 13:55:48;;;;;;;5.22;1.38;;;;;;;;;;5042435;28;20055;-81
2023/08/30 13:58:13;;;;;;;5.18;0.98;;;;;;;;;;5050249;28;20067;-81
2023/08/30 14:00:38;;;;;;;5.10;1.48;;;;;;;;;;5038283;28;20047;-81
2023/08/30 14:03:04;;;;;;;4.35;1.23;;;;;;;;;;5038509;28;20108;-80
2023/08/30 14:05:29;;;;;;;6.35;1.38;;;;;;;;;;5037544;28;20020;-81
2023/08/30 14:07:54;;;;;;;6.03;1.10;;;;;;;;;;5041692;28;20020;-80
2023/08/30 14:10:20;;;;;;;3.40;0.90;;;;;;;;;;5048047;28;20020;-82
2023/08/30 14:12:45;;;;;;;7.05;1.17;;;;;;;;;;5065005;28;20033;-81
2023/08/30 14:15:11;;;;;;;3.05;0.93;;;;;;;;;;5055773;28;20469;-81
2023/08/30 14:17:36;;;;;;;2.22;0.80;;;;;;;;;;5037560;28;20017;-81
2023/08/30 14:20:01;;;;;;;5.65;1.00;;;;;;;;;;5055231;28;20023;-81
2023/08/30 14:22:27;;;;;;;2.53;0.85;;;;;;;;;;5037731;28;20079;-81
2023/08/30 14:24:52;;;;;;;4.20;0.90;;;;;;;;;;5042858;28;20033;-81
2023/08/30 14:27:17;;;;;;;4.90;0.98;;;;;;;;;;5037599;28;20496;-82
2023/08/30 14:29:43;;;;;;;2.80;0.77;;;;;;;;;;5048838;28;20161;-81
2023/08/30 14:32:08;;;;;;;4.57;0.90;;;;;;;;;;5057926;28;20098;-81
2023/08/30 14:34:33;;;;;;;5.47;1.10;;;;;;;;;;5037335;28;20017;-81
2023/08/30 14:36:59;;;;;;;8.55;1.13;;;;;;;;;;5037118;28;20468;-81